Time;durP1;ratioP1;P1;durP2;ratioP2;P2;SDS_P1;SDS_P2;PMS_P1;PMS_P2;Temp;Humidity;BMP_temperature;BMP_pressure;BME280_temperature;BME280_humidity;BME280_pressure;Samples;Min_cycle;Max_cycle;Signal;HPM_P1;HPM_P2
2023/08/06 00:00:17;;;;;;;2.13;1.95;;;15.80;99.90;15.80;99827.00;;;;4988017;27;110651;-68
2023/08/06 00:02:43;;;;;;;2.55;1.95;;;15.80;99.90;15.80;99822.00;;;;4988312;27;87584;-67
2023/08/06 00:05:08;;;;;;;2.80;2.10;;;15.70;99.90;15.80;99829.00;;;;4987306;27;117010;-67
2023/08/06 00:07:34;;;;;;;2.08;1.58;;;15.70;99.90;15.70;99828.00;;;;4992632;27;115765;-67
2023/08/06 00:10:00;;;;;;;2.50;1.75;;;15.70;99.90;15.70;99817.00;;;;4995982;27;87717;-67
2023/08/06 00:12:25;;;;;;;2.95;2.00;;;15.70;99.90;15.70;99813.00;;;;4987724;27;109070;-69
2023/08/06 00:14:53;;;;;;;1.60;1.50;;;15.60;99.90;15.70;99807.00;;;;4990960;27;88451;-67
2023/08/06 00:17:19;;;;;;;2.53;2.33;;;15.60;99.90;15.60;99805.00;;;;4996387;27;97535;-69
2023/08/06 00:19:44;;;;;;;2.35;2.10;;;15.60;99.90;15.60;99795.00;;;;4977428;28;87739;-68
2023/08/06 00:22:10;;;;;;;1.92;1.67;;;15.60;99.90;15.60;99795.00;;;;4986313;27;88081;-69
2023/08/06 00:24:36;;;;;;;1.95;1.70;;;15.60;99.90;15.60;99800.00;;;;4988632;28;119013;-69
2023/08/06 00:27:02;;;;;;;2.35;2.15;;;15.50;99.90;15.60;99791.00;;;;4991317;27;117940;-67
2023/08/06 00:29:28;;;;;;;2.00;1.50;;;15.50;99.90;15.60;99792.00;;;;4994574;27;100783;-68
2023/08/06 00:31:54;;;;;;;2.80;2.25;;;15.50;99.90;15.60;99785.00;;;;4990134;27;108141;-68
2023/08/06 00:34:20;;;;;;;2.92;2.35;;;15.50;99.90;15.60;99781.00;;;;4990512;28;116922;-67
2023/08/06 00:36:45;;;;;;;2.35;2.00;;;15.50;99.90;15.60;99779.00;;;;4990169;27;101418;-66
2023/08/06 00:39:11;;;;;;;2.33;1.50;;;15.50;99.90;15.60;99780.00;;;;4997361;27;87934;-66
2023/08/06 00:41:37;;;;;;;2.40;1.77;;;15.50;99.90;15.60;99774.00;;;;4989857;28;108883;-66
2023/08/06 00:44:03;;;;;;;2.50;1.95;;;15.50;99.90;15.60;99767.00;;;;4993469;27;117168;-65
2023/08/06 00:46:30;;;;;;;2.13;1.88;;;15.50;99.90;15.60;99766.00;;;;4992766;28;87972;-65
2023/08/06 00:48:56;;;;;;;2.75;2.15;;;15.50;99.90;15.60;99765.00;;;;4991545;27;96364;-65
2023/08/06 00:51:23;;;;;;;2.40;1.77;;;15.50;99.90;15.50;99762.00;;;;4987694;27;108562;-66
2023/08/06 00:53:50;;;;;;;3.88;2.05;;;15.50;99.90;15.50;99761.00;;;;4986208;27;118330;-65
2023/08/06 00:56:16;;;;;;;2.42;1.88;;;15.40;99.90;15.50;99762.00;;;;4987892;27;117516;-66
2023/08/06 00:58:41;;;;;;;2.33;2.08;;;15.40;99.90;15.50;99756.00;;;;4995083;27;88102;-65
2023/08/06 01:01:07;;;;;;;2.42;2.20;;;15.40;99.90;15.50;99760.00;;;;4994727;27;98995;-65
2023/08/06 01:03:33;;;;;;;2.10;1.88;;;15.40;99.90;15.50;99750.00;;;;4990144;27;97154;-65
2023/08/06 01:06:00;;;;;;;2.85;2.63;;;15.40;99.90;15.50;99760.00;;;;4989871;27;88742;-65
2023/08/06 01:08:49;;;;;;;2.30;2.10;;;15.40;99.90;15.50;99762.00;;;;4994469;27;101023;-65
2023/08/06 01:11:30;;;;;;;3.10;1.98;;;15.40;99.90;15.40;99757.00;;;;4993556;27;87567;-65
2023/08/06 01:14:59;;;;;;;2.33;1.88;;;15.40;99.90;15.40;99754.00;;;;4988001;27;88922;-64
2023/08/06 01:17:26;;;;;;;2.20;2.00;;;15.40;99.90;15.40;99750.00;;;;4965952;27;88882;-65
2023/08/06 01:19:52;;;;;;;3.55;2.03;;;15.30;99.90;15.40;99754.00;;;;4993338;27;87894;-65
2023/08/06 01:22:18;;;;;;;3.13;2.40;;;15.30;99.90;15.40;99753.00;;;;4989769;27;102176;-67
2023/08/06 01:24:49;;;;;;;3.25;2.20;;;15.30;99.90;15.40;99752.00;;;;4990975;27;110632;-67
2023/08/06 01:27:25;;;;;;;2.10;1.83;;;15.30;99.90;15.40;99745.00;;;;4990489;27;108335;-65
2023/08/06 01:30:22;;;;;;;2.75;2.55;;;15.30;99.90;15.40;99740.00;;;;4989683;27;87800;-66
2023/08/06 01:32:54;;;;;;;2.80;1.92;;;15.30;99.90;15.40;99742.00;;;;4984265;27;98389;-64
2023/08/06 01:35:20;;;;;;;2.38;2.10;;;15.30;99.90;15.40;99726.00;;;;4991867;27;89058;-66
2023/08/06 01:37:47;;;;;;;2.10;1.80;;;15.30;99.90;15.40;99708.00;;;;4988374;27;100244;-65
2023/08/06 01:40:13;;;;;;;3.53;2.08;;;15.30;99.90;15.40;99713.00;;;;4992363;27;88755;-65
2023/08/06 01:42:39;;;;;;;2.25;2.00;;;15.40;99.90;15.50;99708.00;;;;5000664;27;88350;-64
2023/08/06 01:45:07;;;;;;;2.85;2.65;;;15.40;99.90;15.50;99702.00;;;;4996921;27;95622;-64
2023/08/06 01:47:33;;;;;;;2.72;2.53;;;15.40;99.90;15.50;99703.00;;;;4995037;27;94140;-65
2023/08/06 01:49:59;;;;;;;3.80;3.17;;;15.40;99.90;15.50;99695.00;;;;4998741;27;88010;-65
2023/08/06 01:52:24;;;;;;;2.08;1.80;;;15.40;99.90;15.50;99690.00;;;;4996441;27;107943;-65
2023/08/06 01:54:50;;;;;;;3.72;2.80;;;15.40;99.90;15.50;99687.00;;;;4992413;27;117293;-64
2023/08/06 01:57:16;;;;;;;3.42;2.35;;;15.40;99.90;15.50;99688.00;;;;5005331;27;115848;-65
2023/08/06 01:59:41;;;;;;;2.13;1.85;;;15.40;99.90;15.50;99682.00;;;;4992935;27;110545;-65
2023/08/06 02:02:07;;;;;;;3.90;2.75;;;15.50;99.90;15.60;99683.00;;;;4996199;27;108719;-65
2023/08/06 02:04:32;;;;;;;4.22;2.58;;;15.50;99.90;15.50;99679.00;;;;4992642;27;94775;-64
2023/08/06 02:06:58;;;;;;;2.50;2.38;;;15.50;99.90;15.60;99679.00;;;;4993126;27;117453;-64
2023/08/06 02:09:24;;;;;;;2.55;2.30;;;15.50;99.90;15.60;99679.00;;;;4989428;27;91848;-64
2023/08/06 02:11:49;;;;;;;2.90;1.92;;;15.50;99.90;15.60;99682.00;;;;4991745;27;88198;-64
2023/08/06 02:14:15;;;;;;;2.13;1.88;;;15.50;99.90;15.60;99674.00;;;;4997559;27;88930;-63
2023/08/06 02:16:41;;;;;;;2.40;2.20;;;15.50;99.90;15.60;99686.00;;;;4992417;27;88537;-64
2023/08/06 02:19:06;;;;;;;3.42;1.85;;;15.50;99.90;15.60;99690.00;;;;4993121;27;108143;-64
2023/08/06 02:21:32;;;;;;;2.30;1.80;;;15.50;99.90;15.60;99684.00;;;;4989326;27;109481;-64
2023/08/06 02:23:58;;;;;;;2.08;1.88;;;15.50;99.90;15.60;99681.00;;;;4988238;27;117939;-64
2023/08/06 02:26:23;;;;;;;2.22;2.03;;;15.50;99.90;15.60;99693.00;;;;4989536;27;117836;-64
2023/08/06 02:28:49;;;;;;;1.65;1.52;;;15.50;99.90;15.60;99694.00;;;;4999398;27;88690;-64
2023/08/06 02:31:15;;;;;;;3.08;1.77;;;15.50;99.90;15.60;99691.00;;;;4997573;27;108209;-64
2023/08/06 02:33:40;;;;;;;3.22;2.00;;;15.60;99.90;15.70;99685.00;;;;4996761;27;117300;-64
2023/08/06 02:36:06;;;;;;;4.43;1.88;;;15.70;99.90;15.70;99683.00;;;;4996817;27;118109;-63
2023/08/06 02:38:35;;;;;;;3.20;2.78;;;15.60;99.90;15.70;99685.00;;;;4986884;28;89512;-63
2023/08/06 02:41:04;;;;;;;2.53;1.90;;;15.60;99.90;15.70;99684.00;;;;4989107;27;88009;-63
2023/08/06 02:43:29;;;;;;;2.97;2.63;;;15.70;99.90;15.80;99690.00;;;;4994089;28;88567;-63
2023/08/06 02:46:00;;;;;;;10.68;2.47;;;15.70;99.90;15.80;99675.00;;;;4991969;27;108509;-63
2023/08/06 02:48:25;;;;;;;2.92;2.33;;;15.70;99.90;15.80;99675.00;;;;4994864;27;88087;-64
2023/08/06 02:50:51;;;;;;;4.00;2.05;;;15.70;99.90;15.80;99658.00;;;;4994933;27;89189;-64
2023/08/06 02:53:17;;;;;;;2.72;2.47;;;15.70;99.90;15.80;99670.00;;;;4990528;27;119008;-64
2023/08/06 02:55:52;;;;;;;2.90;2.08;;;15.70;99.90;15.80;99658.00;;;;4992483;27;89347;-64
2023/08/06 02:58:22;;;;;;;2.75;2.13;;;15.70;99.90;15.80;99649.00;;;;4990633;28;87872;-64
2023/08/06 03:01:00;;;;;;;2.45;2.25;;;15.70;99.90;15.80;99662.00;;;;4994809;28;88423;-64
2023/08/06 03:03:26;;;;;;;3.75;1.90;;;15.80;99.90;15.90;99655.00;;;;4994047;27;89174;-63
2023/08/06 03:05:53;;;;;;;3.03;2.60;;;15.80;99.90;15.80;99645.00;;;;4993750;27;109771;-65
2023/08/06 03:08:22;;;;;;;3.13;2.25;;;15.80;99.90;15.80;99653.00;;;;4991126;27;87789;-64
2023/08/06 03:10:49;;;;;;;3.03;2.40;;;15.80;99.90;15.80;99656.00;;;;4994748;27;87228;-64
2023/08/06 03:13:16;;;;;;;2.72;2.53;;;15.80;99.90;15.80;99654.00;;;;4995057;27;88851;-64
2023/08/06 03:15:41;;;;;;;4.47;1.80;;;15.80;99.90;15.80;99643.00;;;;4993574;27;87846;-64
2023/08/06 03:18:07;;;;;;;2.90;2.45;;;15.80;99.90;15.80;99649.00;;;;4994502;27;109176;-64
2023/08/06 03:20:33;;;;;;;2.83;2.63;;;15.70;99.90;15.80;99638.00;;;;4990880;27;109123;-64
2023/08/06 03:22:58;;;;;;;2.40;2.20;;;15.70;99.90;15.80;99637.00;;;;4992282;27;117926;-64
2023/08/06 03:25:24;;;;;;;4.50;3.92;;;15.70;99.90;15.80;99621.00;;;;4993534;27;97544;-65
2023/08/06 03:27:50;;;;;;;2.80;2.60;;;15.70;99.90;15.70;99624.00;;;;4986261;27;109323;-64
2023/08/06 03:30:15;;;;;;;5.05;2.47;;;15.60;99.90;15.70;99622.00;;;;4989500;27;109946;-64
2023/08/06 03:32:41;;;;;;;2.97;2.65;;;15.70;99.90;15.70;99619.00;;;;4986290;28;116508;-64
2023/08/06 03:35:07;;;;;;;2.28;2.08;;;15.60;99.90;15.70;99627.00;;;;4990148;27;116647;-64
2023/08/06 03:37:33;;;;;;;3.25;2.95;;;15.60;99.90;15.70;99610.00;;;;4994104;27;99878;-64
2023/08/06 03:39:58;;;;;;;2.88;2.58;;;15.60;99.90;15.60;99607.00;;;;4985309;27;108037;-64
2023/08/06 03:42:24;;;;;;;3.58;2.92;;;15.60;99.90;15.60;99602.00;;;;4994085;27;119048;-64
2023/08/06 03:44:50;;;;;;;3.58;2.45;;;15.60;99.90;15.60;99592.00;;;;4996970;27;88611;-64
2023/08/06 03:47:15;;;;;;;3.33;2.50;;;15.60;99.90;15.70;99583.00;;;;4990217;27;110940;-64
2023/08/06 03:49:41;;;;;;;2.95;2.75;;;15.60;99.90;15.70;99593.00;;;;4991956;27;108774;-64
2023/08/06 03:52:07;;;;;;;3.55;2.45;;;15.60;99.90;15.70;99584.00;;;;4989579;28;88905;-65
2023/08/06 03:54:32;;;;;;;3.97;2.72;;;15.60;99.90;15.70;99582.00;;;;4993721;28;98702;-65
2023/08/06 03:56:58;;;;;;;3.58;2.58;;;15.70;99.90;15.70;99575.00;;;;4992993;27;100942;-65
2023/08/06 03:59:24;;;;;;;2.50;1.95;;;15.70;99.90;15.70;99574.00;;;;4990736;28;94123;-65
2023/08/06 04:01:49;;;;;;;2.47;2.28;;;15.60;99.90;15.70;99570.00;;;;4992199;27;117907;-65
2023/08/06 04:04:15;;;;;;;4.35;2.40;;;15.60;99.90;15.70;99567.00;;;;4989918;27;105298;-64
2023/08/06 04:06:41;;;;;;;2.35;2.15;;;15.60;99.90;15.70;99562.00;;;;4989784;28;109856;-65
2023/08/06 04:09:06;;;;;;;3.80;2.42;;;15.70;99.90;15.70;99557.00;;;;4990814;28;108034;-65
2023/08/06 04:11:32;;;;;;;2.42;1.92;;;15.60;99.90;15.70;99568.00;;;;4985488;27;116868;-65
2023/08/06 04:13:58;;;;;;;8.35;3.38;;;15.60;99.90;15.70;99561.00;;;;4987116;28;116803;-64
2023/08/06 04:16:23;;;;;;;2.70;2.42;;;15.70;99.90;15.80;99557.00;;;;4994469;28;87607;-65
2023/08/06 04:18:49;;;;;;;3.97;2.42;;;15.70;99.90;15.80;99552.00;;;;4994186;27;87852;-65
2023/08/06 04:21:15;;;;;;;2.78;1.98;;;15.70;99.90;15.80;99560.00;;;;4989849;28;104990;-65
2023/08/06 04:23:40;;;;;;;2.15;1.95;;;15.70;99.90;15.80;99550.00;;;;4997036;28;120659;-65
2023/08/06 04:26:06;;;;;;;3.85;2.22;;;15.70;99.90;15.80;99546.00;;;;4991191;27;102795;-64
2023/08/06 04:28:32;;;;;;;3.58;2.60;;;15.70;99.90;15.80;99546.00;;;;4991768;27;109291;-64
2023/08/06 04:30:59;;;;;;;1.58;1.48;;;15.70;99.90;15.80;99546.00;;;;4990444;27;119090;-66
2023/08/06 04:33:35;;;;;;;3.17;2.28;;;15.70;99.90;15.80;99535.00;;;;4993435;28;105709;-66
2023/08/06 04:36:01;;;;;;;5.85;2.40;;;15.80;99.90;15.80;99534.00;;;;4991658;27;105309;-66
2023/08/06 04:38:26;;;;;;;3.00;2.22;;;15.80;99.90;15.80;99530.00;;;;4991932;27;109292;-66
2023/08/06 04:40:53;;;;;;;2.92;2.33;;;15.70;99.90;15.90;99532.00;;;;4997262;27;88015;-66
2023/08/06 04:43:18;;;;;;;2.65;2.03;;;15.80;99.90;15.80;99529.00;;;;4987762;27;88229;-67
2023/08/06 04:45:53;;;;;;;2.63;1.85;;;15.80;99.90;15.80;99517.00;;;;4993261;27;108996;-67
2023/08/06 04:48:19;;;;;;;4.07;2.38;;;15.80;99.90;15.80;99513.00;;;;4993333;27;87136;-67
2023/08/06 04:50:49;;;;;;;2.60;2.08;;;15.80;99.90;15.80;99516.00;;;;4999293;27;115580;-66
2023/08/06 04:53:16;;;;;;;1.75;1.63;;;15.70;99.90;15.80;99517.00;;;;4993335;27;110667;-66
2023/08/06 04:55:53;;;;;;;3.10;1.92;;;15.70;99.90;15.80;99510.00;;;;4992721;27;88886;-66
2023/08/06 04:58:19;;;;;;;2.90;1.98;;;15.70;99.90;15.80;99520.00;;;;4994875;27;93845;-66
2023/08/06 05:00:44;;;;;;;3.00;2.38;;;15.80;99.90;15.90;99518.00;;;;4990810;27;117430;-67
2023/08/06 05:03:10;;;;;;;3.00;2.17;;;15.80;99.90;15.90;99509.00;;;;4988958;27;117576;-66
2023/08/06 05:05:36;;;;;;;3.72;2.17;;;15.80;99.90;15.90;99507.00;;;;4995299;27;110406;-66
2023/08/06 05:08:01;;;;;;;2.40;2.10;;;15.80;99.90;15.90;99508.00;;;;4996285;27;109602;-66
2023/08/06 05:10:27;;;;;;;2.15;1.67;;;15.80;99.90;15.90;99506.00;;;;4993039;27;118468;-67
2023/08/06 05:12:54;;;;;;;2.30;2.10;;;15.80;99.90;15.90;99514.00;;;;4992601;27;117758;-67
2023/08/06 05:15:19;;;;;;;1.55;1.45;;;15.80;99.90;15.90;99506.00;;;;4998605;27;87980;-66
2023/08/06 05:17:45;;;;;;;2.67;1.90;;;15.80;99.90;15.90;99505.00;;;;4987970;27;94891;-66
2023/08/06 05:20:11;;;;;;;1.73;1.45;;;15.80;99.90;16.00;99504.00;;;;4992782;27;89663;-66
2023/08/06 05:22:37;;;;;;;3.15;2.03;;;15.90;99.90;16.00;99503.00;;;;4989292;27;105463;-66
2023/08/06 05:25:03;;;;;;;5.93;2.50;;;15.90;99.90;16.00;99496.00;;;;4101794;27;10000537;-66
2023/08/06 05:27:28;;;;;;;2.30;1.38;;;15.90;99.90;16.00;99504.00;;;;4988440;27;88113;-66
2023/08/06 05:29:57;;;;;;;3.05;1.92;;;15.90;99.90;16.00;99506.00;;;;4990099;27;109708;-66
2023/08/06 05:32:23;;;;;;;2.80;2.10;;;15.90;99.90;16.00;99505.00;;;;4993094;27;87943;-67
2023/08/06 05:34:49;;;;;;;1.85;1.73;;;15.90;99.90;16.00;99497.00;;;;4991126;27;117371;-66
2023/08/06 05:37:14;;;;;;;2.65;1.83;;;16.00;99.90;16.00;99503.00;;;;4991087;27;95350;-67
2023/08/06 05:39:40;;;;;;;3.08;1.52;;;15.90;99.90;16.00;99499.00;;;;5004583;27;109893;-66
2023/08/06 05:42:06;;;;;;;1.80;1.52;;;16.00;99.90;16.00;99501.00;;;;4987129;27;87655;-67
2023/08/06 05:44:32;;;;;;;2.78;2.08;;;16.00;99.90;16.10;99489.00;;;;4989477;27;89789;-66
2023/08/06 05:46:57;;;;;;;2.42;1.63;;;16.00;99.90;16.00;99481.00;;;;4990398;27;118593;-67
2023/08/06 05:49:23;;;;;;;2.22;2.03;;;16.00;99.90;16.10;99484.00;;;;4985022;27;109959;-67
2023/08/06 05:51:49;;;;;;;2.65;1.70;;;16.00;99.90;16.10;99483.00;;;;4988474;27;109707;-67
2023/08/06 05:54:14;;;;;;;2.08;1.50;;;16.00;99.90;16.10;99484.00;;;;4272745;27;10001169;-67
2023/08/06 05:56:40;;;;;;;4.13;1.67;;;16.00;99.90;16.10;99482.00;;;;4986224;27;88063;-67
2023/08/06 05:59:06;;;;;;;2.30;1.83;;;16.00;99.90;16.20;99490.00;;;;4977563;27;89223;-66
2023/08/06 06:01:31;;;;;;;2.22;1.98;;;16.10;99.90;16.20;99479.00;;;;4115057;27;10000727;-68
2023/08/06 06:03:57;;;;;;;2.35;2.15;;;16.10;99.90;16.20;99486.00;;;;4983176;27;87980;-66
2023/08/06 06:06:23;;;;;;;2.10;2.00;;;16.10;99.90;16.20;99487.00;;;;4098523;27;10001005;-66
2023/08/06 06:08:49;;;;;;;2.20;2.03;;;16.10;99.90;16.20;99484.00;;;;4986908;27;89836;-67
2023/08/06 06:11:14;;;;;;;3.65;2.20;;;16.10;99.90;16.20;99487.00;;;;4989354;27;88288;-67
2023/08/06 06:13:40;;;;;;;2.25;1.45;;;16.10;99.90;16.20;99488.00;;;;4985988;27;116642;-67
2023/08/06 06:16:06;;;;;;;2.85;1.40;;;16.10;99.90;16.20;99487.00;;;;4988139;27;110393;-67
2023/08/06 06:18:31;;;;;;;1.92;1.65;;;16.10;99.90;16.20;99487.00;;;;4989919;27;87669;-66
2023/08/06 06:20:57;;;;;;;1.98;1.67;;;16.10;99.90;16.20;99479.00;;;;4994536;27;107713;-67
2023/08/06 06:23:23;;;;;;;3.00;1.73;;;16.10;99.90;16.30;99480.00;;;;4990820;27;116447;-67
2023/08/06 06:25:51;;;;;;;1.45;1.35;;;16.20;99.90;16.30;99477.00;;;;4989633;28;111425;-67
2023/08/06 06:28:18;;;;;;;1.45;1.30;;;16.20;99.90;16.30;99474.00;;;;4984568;27;89238;-67
2023/08/06 06:30:44;;;;;;;2.75;2.03;;;16.20;99.90;16.30;99477.00;;;;4988167;28;103894;-67
2023/08/06 06:33:09;;;;;;;2.08;1.13;;;16.20;99.90;16.30;99471.00;;;;4990722;27;117550;-67
2023/08/06 06:35:35;;;;;;;1.38;1.27;;;16.20;99.90;16.30;99471.00;;;;4990513;27;110711;-66
2023/08/06 06:38:02;;;;;;;1.90;1.45;;;16.20;99.90;16.30;99472.00;;;;4994798;27;107395;-67
2023/08/06 06:40:28;;;;;;;1.48;1.38;;;16.20;99.90;16.30;99466.00;;;;4989633;27;88658;-67
2023/08/06 06:42:53;;;;;;;2.15;1.92;;;16.30;99.90;16.40;99468.00;;;;4985874;27;109848;-67
2023/08/06 06:45:19;;;;;;;2.42;1.48;;;16.30;99.90;16.40;99472.00;;;;4983924;27;109529;-66
2023/08/06 06:47:45;;;;;;;1.77;1.35;;;16.30;99.90;16.40;99471.00;;;;4984205;27;108426;-66
2023/08/06 06:50:10;;;;;;;2.22;2.03;;;16.30;99.90;16.40;99472.00;;;;4986467;27;116893;-68
2023/08/06 06:52:36;;;;;;;2.50;1.45;;;16.30;99.90;16.40;99467.00;;;;4994162;27;111322;-67
2023/08/06 06:55:02;;;;;;;1.98;1.58;;;16.30;99.90;16.40;99471.00;;;;4991933;27;87835;-67
2023/08/06 06:57:28;;;;;;;2.03;1.80;;;16.30;99.90;16.40;99468.00;;;;4980518;27;89217;-66
2023/08/06 06:59:53;;;;;;;2.53;1.80;;;16.30;99.90;16.40;99473.00;;;;4989682;27;117706;-66
2023/08/06 07:02:19;;;;;;;2.75;2.00;;;16.30;99.90;16.50;99481.00;;;;4988613;27;114234;-66
2023/08/06 07:04:45;;;;;;;2.42;1.73;;;16.40;99.90;16.50;99484.00;;;;4986103;27;98824;-66
2023/08/06 07:07:10;;;;;;;2.05;1.85;;;16.40;99.90;16.50;99478.00;;;;4981078;27;109528;-66
2023/08/06 07:09:36;;;;;;;3.08;2.13;;;16.40;99.90;16.50;99478.00;;;;4989022;27;88709;-66
2023/08/06 07:12:05;;;;;;;2.55;2.30;;;16.40;99.90;16.60;99481.00;;;;4992164;27;109600;-66
2023/08/06 07:14:31;;;;;;;1.02;0.95;;;16.40;99.90;16.60;99477.00;;;;4997872;27;88210;-66
2023/08/06 07:16:56;;;;;;;2.95;2.03;;;16.50;99.90;16.60;99472.00;;;;4991243;27;93150;-65
2023/08/06 07:19:23;;;;;;;2.83;1.80;;;16.50;99.90;16.60;99481.00;;;;4991039;28;116127;-66
2023/08/06 07:21:49;;;;;;;2.33;1.17;;;16.50;99.90;16.60;99484.00;;;;4988480;27;117496;-66
2023/08/06 07:24:15;;;;;;;2.17;1.98;;;16.50;99.90;16.60;99489.00;;;;4986675;27;87762;-67
2023/08/06 07:26:53;;;;;;;2.63;1.92;;;16.50;99.90;16.60;99488.00;;;;4992617;27;87909;-67
2023/08/06 07:29:21;;;;;;;1.88;1.27;;;16.60;99.90;16.70;99482.00;;;;4986571;27;114757;-65
2023/08/06 07:31:50;;;;;;;1.75;1.65;;;16.60;99.90;16.70;99485.00;;;;4993480;27;88528;-66
2023/08/06 07:34:16;;;;;;;1.70;1.50;;;16.60;99.90;16.70;99483.00;;;;4988321;27;88997;-66
2023/08/06 07:36:45;;;;;;;3.33;1.73;;;16.60;99.90;16.70;99488.00;;;;4991280;27;88072;-66
2023/08/06 07:39:11;;;;;;;2.15;1.60;;;16.60;99.90;16.70;99489.00;;;;4987544;28;87968;-66
2023/08/06 07:41:36;;;;;;;1.42;1.15;;;16.60;99.90;16.70;99480.00;;;;4987333;28;88414;-66
2023/08/06 07:44:02;;;;;;;1.40;1.30;;;16.60;99.90;16.70;99480.00;;;;4989533;27;110085;-66
2023/08/06 07:46:28;;;;;;;2.25;1.33;;;16.60;99.90;16.70;99481.00;;;;4987398;27;98255;-65
2023/08/06 07:48:53;;;;;;;1.63;1.40;;;16.60;99.90;16.70;99475.00;;;;4989205;27;116609;-65
2023/08/06 07:51:19;;;;;;;2.40;1.80;;;16.60;99.90;16.70;99476.00;;;;4989097;27;89273;-65
2023/08/06 07:53:45;;;;;;;1.40;1.30;;;16.60;99.90;16.80;99467.00;;;;4990088;27;110932;-66
2023/08/06 07:56:11;;;;;;;1.98;1.73;;;16.70;99.90;16.80;99469.00;;;;4989976;27;88321;-65
2023/08/06 07:58:36;;;;;;;2.50;1.85;;;16.70;99.90;16.90;99470.00;;;;4987540;27;115721;-66
2023/08/06 08:01:02;;;;;;;2.53;1.70;;;16.70;99.90;16.90;99465.00;;;;4979860;27;109659;-65
2023/08/06 08:03:28;;;;;;;1.92;1.83;;;16.80;99.90;16.90;99465.00;;;;4984486;27;87088;-65
2023/08/06 08:05:57;;;;;;;2.03;1.52;;;16.80;99.90;17.00;99461.00;;;;4991769;27;107006;-66
2023/08/06 08:08:23;;;;;;;4.55;2.15;;;16.90;99.90;17.10;99463.00;;;;4988081;27;87910;-66
2023/08/06 08:10:49;;;;;;;1.48;1.27;;;16.90;99.90;17.10;99459.00;;;;4986139;27;89160;-65
2023/08/06 08:13:14;;;;;;;5.18;1.23;;;17.00;99.90;17.10;99444.00;;;;4987180;27;108998;-65
2023/08/06 08:15:40;;;;;;;2.08;1.98;;;17.00;99.90;17.10;99446.00;;;;4988723;27;89701;-66
2023/08/06 08:18:06;;;;;;;1.77;1.60;;;17.00;99.90;17.20;99441.00;;;;4985622;27;116380;-65
2023/08/06 08:20:32;;;;;;;2.05;1.48;;;17.10;99.90;17.30;99439.00;;;;4987454;27;96041;-65
2023/08/06 08:23:00;;;;;;;2.88;2.13;;;17.10;99.90;17.40;99451.00;;;;4993833;27;87906;-65
2023/08/06 08:25:26;;;;;;;2.45;1.88;;;17.20;99.90;17.50;99437.00;;;;4990023;27;87656;-65
2023/08/06 08:27:53;;;;;;;2.25;1.75;;;17.30;99.90;17.50;99430.00;;;;4987157;27;88123;-65
2023/08/06 08:30:19;;;;;;;3.53;1.80;;;17.30;99.90;17.60;99438.00;;;;4989094;27;97170;-65
2023/08/06 08:32:44;;;;;;;1.95;1.85;;;17.40;99.90;17.50;99429.00;;;;4987278;27;110737;-66
2023/08/06 08:35:12;;;;;;;3.22;2.17;;;17.40;99.90;17.50;99423.00;;;;4982211;27;108158;-65
2023/08/06 08:37:38;;;;;;;3.85;2.25;;;17.40;99.90;17.50;99426.00;;;;4990034;27;88882;-65
2023/08/06 08:40:08;;;;;;;2.25;2.05;;;17.40;99.90;17.50;99423.00;;;;4991636;27;88476;-65
2023/08/06 08:42:35;;;;;;;2.67;2.47;;;17.40;99.90;17.60;99433.00;;;;4988526;27;99010;-64
2023/08/06 08:45:07;;;;;;;2.25;1.83;;;17.50;99.90;17.60;99420.00;;;;4994398;27;87548;-65
2023/08/06 08:47:33;;;;;;;2.97;1.90;;;17.50;99.90;17.60;99412.00;;;;4988071;27;87832;-64
2023/08/06 08:50:00;;;;;;;1.67;1.58;;;17.50;99.90;17.70;99413.00;;;;4986349;27;87858;-64
2023/08/06 08:52:30;;;;;;;2.22;2.03;;;17.50;99.90;17.60;99408.00;;;;4988103;27;87626;-64
2023/08/06 08:54:56;;;;;;;2.03;1.80;;;17.50;99.90;17.70;99400.00;;;;4989781;27;88971;-65
2023/08/06 08:57:21;;;;;;;3.95;2.40;;;17.60;99.90;17.70;99401.00;;;;4981933;27;116872;-64
2023/08/06 08:59:48;;;;;;;2.47;2.25;;;17.60;99.90;17.70;99396.00;;;;4987003;27;107324;-64
2023/08/06 09:02:15;;;;;;;2.72;2.08;;;17.60;99.90;17.70;99391.00;;;;4984439;27;88031;-65
2023/08/06 09:04:42;;;;;;;2.13;1.65;;;17.60;99.90;17.80;99399.00;;;;4982017;27;88188;-65
2023/08/06 09:07:10;;;;;;;2.13;2.03;;;17.70;99.90;17.90;99393.00;;;;4978669;27;115766;-64
2023/08/06 09:09:37;;;;;;;2.63;2.13;;;17.70;99.90;17.90;99397.00;;;;4977062;27;106785;-64
2023/08/06 09:12:14;;;;;;;3.88;2.13;;;17.80;99.90;17.90;99388.00;;;;4983821;27;87873;-65
2023/08/06 09:14:40;;;;;;;5.10;1.77;;;17.80;99.90;17.90;99386.00;;;;4976962;27;88187;-64
2023/08/06 09:17:06;;;;;;;3.20;2.00;;;17.80;99.90;17.90;99385.00;;;;4983440;27;88456;-65
2023/08/06 09:19:48;;;;;;;3.33;2.10;;;17.80;99.90;17.90;99371.00;;;;4978893;27;88569;-64
2023/08/06 09:22:14;;;;;;;2.22;2.03;;;17.80;99.90;17.90;99384.00;;;;4976115;27;87915;-64
2023/08/06 09:24:43;;;;;;;2.25;2.05;;;17.90;99.90;18.00;99380.00;;;;4975506;27;103065;-65
2023/08/06 09:27:13;;;;;;;2.10;1.90;;;17.90;99.90;18.00;99379.00;;;;4978310;28;87938;-64
2023/08/06 09:29:44;;;;;;;1.77;1.50;;;18.00;99.90;18.10;99370.00;;;;4980923;28;87831;-64
2023/08/06 09:32:12;;;;;;;2.58;1.67;;;18.00;99.90;18.10;99376.00;;;;4981261;27;87972;-65
2023/08/06 09:34:41;;;;;;;2.95;1.85;;;17.90;99.90;18.10;99370.00;;;;4983252;27;89017;-65
2023/08/06 09:37:10;;;;;;;2.25;1.20;;;18.00;99.90;18.10;99366.00;;;;4980221;27;91434;-65
2023/08/06 09:39:36;;;;;;;1.25;1.00;;;18.10;99.90;18.20;99362.00;;;;4981941;27;88819;-66
2023/08/06 09:42:03;;;;;;;1.33;1.30;;;18.10;99.90;18.20;99375.00;;;;4985541;27;87293;-65
2023/08/06 09:44:32;;;;;;;2.58;1.40;;;18.10;99.90;18.30;99368.00;;;;4983316;27;88345;-65
2023/08/06 09:47:00;;;;;;;1.00;0.90;;;18.20;99.90;18.40;99364.00;;;;4983454;27;87778;-66
2023/08/06 09:49:28;;;;;;;1.52;1.42;;;18.30;99.90;18.50;99360.00;;;;4983638;27;101931;-66
2023/08/06 09:51:58;;;;;;;2.25;1.27;;;18.40;99.90;18.50;99371.00;;;;4987892;27;87834;-65
2023/08/06 09:54:26;;;;;;;1.88;1.77;;;18.40;99.90;18.60;99369.00;;;;4982405;27;88091;-66
2023/08/06 09:56:52;;;;;;;2.05;1.45;;;18.50;99.90;18.60;99355.00;;;;4984930;27;89357;-66
2023/08/06 09:59:19;;;;;;;2.05;1.67;;;18.50;99.90;18.70;99362.00;;;;4986552;27;88900;-65
2023/08/06 10:01:45;;;;;;;1.55;1.08;;;18.50;99.90;18.70;99360.00;;;;4987875;27;88026;-65
2023/08/06 10:04:16;;;;;;;2.63;1.33;;;18.60;99.90;18.60;99361.00;;;;4988282;27;87885;-65
2023/08/06 10:06:42;;;;;;;2.10;1.40;;;18.60;99.90;18.60;99356.00;;;;4984094;27;87371;-66
2023/08/06 10:09:09;;;;;;;2.22;1.23;;;18.60;99.90;18.70;99358.00;;;;4988852;27;87810;-65
2023/08/06 10:11:37;;;;;;;4.00;1.85;;;18.50;99.90;18.70;99360.00;;;;4987991;27;88197;-66
2023/08/06 10:14:14;;;;;;;3.83;2.13;;;18.60;99.90;18.80;99353.00;;;;4985720;27;89123;-65
2023/08/06 10:16:42;;;;;;;1.83;1.45;;;18.60;99.90;18.80;99343.00;;;;4985581;27;88287;-66
2023/08/06 10:19:12;;;;;;;2.38;1.83;;;18.70;99.90;18.90;99347.00;;;;4987477;27;87726;-66
2023/08/06 10:21:39;;;;;;;1.40;1.30;;;18.80;99.90;19.00;99352.00;;;;4987648;27;87869;-67
2023/08/06 10:24:11;;;;;;;2.60;1.58;;;18.90;99.90;18.90;99346.00;;;;4988365;27;98705;-67
2023/08/06 10:26:37;;;;;;;2.00;1.80;;;18.80;99.90;18.90;99341.00;;;;4987178;27;87797;-67
2023/08/06 10:29:39;;;;;;;2.65;2.33;;;18.80;99.90;18.90;99347.00;;;;4981895;27;88807;-66
2023/08/06 10:32:05;;;;;;;2.05;1.75;;;18.80;99.90;18.90;99343.00;;;;4984118;27;87325;-66
2023/08/06 10:35:00;;;;;;;2.22;1.77;;;18.80;99.90;18.90;99339.00;;;;4987173;27;88131;-65
2023/08/06 10:37:38;;;;;;;2.05;1.50;;;18.80;99.90;19.00;99340.00;;;;4986396;27;88109;-66
2023/08/06 10:40:07;;;;;;;1.55;1.45;;;18.90;99.90;19.00;99336.00;;;;4984447;27;88810;-66
2023/08/06 10:42:33;;;;;;;2.85;1.60;;;18.90;99.90;19.00;99330.00;;;;4986045;27;87801;-66
2023/08/06 10:45:16;;;;;;;2.50;1.67;;;18.90;99.90;19.00;99323.00;;;;4988818;27;87821;-65
2023/08/06 10:47:45;;;;;;;1.55;1.30;;;18.90;99.90;19.00;99319.00;;;;4985411;27;87707;-66
2023/08/06 10:50:17;;;;;;;1.42;1.33;;;18.90;99.90;19.00;99320.00;;;;4980871;27;89269;-67